sensor_id;sensor_type;location;lat;lon;timestamp;P1;durP1;ratioP1;P2;durP2;ratioP2
47365;SDS011;33105;47.964;7.982;2024-03-07T00:06:17;7.57;;;5.45;;
47365;SDS011;33105;47.964;7.982;2024-03-07T00:20:20;8.82;;;5.47;;
47365;SDS011;33105;47.964;7.982;2024-03-07T00:28:22;5.38;;;3.88;;
47365;SDS011;33105;47.964;7.982;2024-03-07T00:31:23;5.22;;;3.92;;
47365;SDS011;33105;47.964;7.982;2024-03-07T00:34:25;7.00;;;4.60;;
47365;SDS011;33105;47.964;7.982;2024-03-07T00:37:26;6.18;;;4.50;;
47365;SDS011;33105;47.964;7.982;2024-03-07T00:40:28;5.50;;;4.50;;
47365;SDS011;33105;47.964;7.982;2024-03-07T00:53:10;11.65;;;7.65;;
47365;SDS011;33105;47.964;7.982;2024-03-07T00:57:16;11.25;;;8.00;;
47365;SDS011;33105;47.964;7.982;2024-03-07T01:00:18;10.93;;;8.15;;
47365;SDS011;33105;47.964;7.982;2024-03-07T01:42:59;10.90;;;8.00;;
47365;SDS011;33105;47.964;7.982;2024-03-07T01:46:05;10.23;;;6.75;;
47365;SDS011;33105;47.964;7.982;2024-03-07T01:57:36;6.60;;;5.13;;
47365;SDS011;33105;47.964;7.982;2024-03-07T02:04:16;7.93;;;4.90;;
47365;SDS011;33105;47.964;7.982;2024-03-07T02:07:18;6.68;;;4.50;;
47365;SDS011;33105;47.964;7.982;2024-03-07T02:10:19;7.43;;;4.57;;
47365;SDS011;33105;47.964;7.982;2024-03-07T02:13:20;6.47;;;4.80;;
47365;SDS011;33105;47.964;7.982;2024-03-07T02:16:22;8.13;;;4.70;;
47365;SDS011;33105;47.964;7.982;2024-03-07T02:19:23;9.13;;;5.15;;
47365;SDS011;33105;47.964;7.982;2024-03-07T02:22:24;6.47;;;4.97;;
47365;SDS011;33105;47.964;7.982;2024-03-07T02:25:27;5.82;;;4.60;;
47365;SDS011;33105;47.964;7.982;2024-03-07T02:38:03;5.32;;;3.80;;
47365;SDS011;33105;47.964;7.982;2024-03-07T02:42:09;6.07;;;4.40;;
47365;SDS011;33105;47.964;7.982;2024-03-07T03:13:43;7.15;;;4.10;;
47365;SDS011;33105;47.964;7.982;2024-03-07T03:46:35;13.25;;;5.75;;
47365;SDS011;33105;47.964;7.982;2024-03-07T03:57:14;19.83;;;8.15;;
47365;SDS011;33105;47.964;7.982;2024-03-07T04:00:28;21.17;;;8.68;;
47365;SDS011;33105;47.964;7.982;2024-03-07T04:03:29;30.30;;;11.93;;
47365;SDS011;33105;47.964;7.982;2024-03-07T04:06:31;42.88;;;14.93;;
47365;SDS011;33105;47.964;7.982;2024-03-07T04:09:32;39.70;;;15.18;;
47365;SDS011;33105;47.964;7.982;2024-03-07T04:12:34;44.90;;;17.13;;
47365;SDS011;33105;47.964;7.982;2024-03-07T04:15:39;50.25;;;17.60;;
47365;SDS011;33105;47.964;7.982;2024-03-07T04:18:41;52.95;;;17.23;;
47365;SDS011;33105;47.964;7.982;2024-03-07T04:21:42;53.67;;;19.25;;
47365;SDS011;33105;47.964;7.982;2024-03-07T04:24:53;47.70;;;17.77;;
47365;SDS011;33105;47.964;7.982;2024-03-07T04:28:22;43.08;;;16.35;;
47365;SDS011;33105;47.964;7.982;2024-03-07T04:40:30;42.90;;;13.38;;
47365;SDS011;33105;47.964;7.982;2024-03-07T04:44:40;31.75;;;13.18;;
47365;SDS011;33105;47.964;7.982;2024-03-07T04:47:42;32.55;;;13.32;;
47365;SDS011;33105;47.964;7.982;2024-03-07T04:51:00;37.90;;;14.57;;
47365;SDS011;33105;47.964;7.982;2024-03-07T04:54:06;42.65;;;16.17;;
47365;SDS011;33105;47.964;7.982;2024-03-07T04:57:08;45.00;;;17.83;;
47365;SDS011;33105;47.964;7.982;2024-03-07T05:00:13;45.20;;;18.08;;
47365;SDS011;33105;47.964;7.982;2024-03-07T05:03:15;46.13;;;18.75;;
47365;SDS011;33105;47.964;7.982;2024-03-07T05:06:17;46.17;;;17.50;;
47365;SDS011;33105;47.964;7.982;2024-03-07T05:09:19;50.05;;;19.65;;
47365;SDS011;33105;47.964;7.982;2024-03-07T05:12:24;45.53;;;18.08;;
47365;SDS011;33105;47.964;7.982;2024-03-07T05:15:26;43.58;;;17.35;;
47365;SDS011;33105;47.964;7.982;2024-03-07T05:18:34;43.60;;;18.27;;
47365;SDS011;33105;47.964;7.982;2024-03-07T05:21:35;42.65;;;17.20;;
47365;SDS011;33105;47.964;7.982;2024-03-07T05:24:42;41.40;;;18.33;;
47365;SDS011;33105;47.964;7.982;2024-03-07T05:27:46;50.88;;;17.73;;
47365;SDS011;33105;47.964;7.982;2024-03-07T05:30:47;39.97;;;16.80;;
47365;SDS011;33105;47.964;7.982;2024-03-07T05:33:50;53.80;;;17.02;;
47365;SDS011;33105;47.964;7.982;2024-03-07T05:36:51;43.72;;;17.33;;
47365;SDS011;33105;47.964;7.982;2024-03-07T05:39:52;39.17;;;16.30;;
47365;SDS011;33105;47.964;7.982;2024-03-07T05:42:54;38.25;;;15.40;;
47365;SDS011;33105;47.964;7.982;2024-03-07T05:45:56;29.92;;;13.35;;
47365;SDS011;33105;47.964;7.982;2024-03-07T05:49:04;26.95;;;12.43;;
47365;SDS011;33105;47.964;7.982;2024-03-07T05:52:05;34.85;;;12.98;;
47365;SDS011;33105;47.964;7.982;2024-03-07T05:55:07;33.58;;;13.13;;
47365;SDS011;33105;47.964;7.982;2024-03-07T05:58:08;30.63;;;12.48;;
47365;SDS011;33105;47.964;7.982;2024-03-07T06:01:10;34.63;;;12.98;;
47365;SDS011;33105;47.964;7.982;2024-03-07T06:04:12;29.33;;;12.60;;
47365;SDS011;33105;47.964;7.982;2024-03-07T06:07:13;28.35;;;12.68;;
47365;SDS011;33105;47.964;7.982;2024-03-07T06:10:14;34.42;;;13.00;;
47365;SDS011;33105;47.964;7.982;2024-03-07T06:13:17;56.70;;;18.83;;
47365;SDS011;33105;47.964;7.982;2024-03-07T06:16:19;53.92;;;18.10;;
47365;SDS011;33105;47.964;7.982;2024-03-07T06:19:21;52.40;;;18.83;;
47365;SDS011;33105;47.964;7.982;2024-03-07T06:22:22;52.63;;;18.17;;
47365;SDS011;33105;47.964;7.982;2024-03-07T06:25:23;70.88;;;20.40;;
47365;SDS011;33105;47.964;7.982;2024-03-07T06:28:35;53.33;;;17.88;;
47365;SDS011;33105;47.964;7.982;2024-03-07T06:31:36;73.93;;;19.65;;
47365;SDS011;33105;47.964;7.982;2024-03-07T06:34:38;46.72;;;18.08;;
47365;SDS011;33105;47.964;7.982;2024-03-07T06:37:39;63.30;;;20.88;;
47365;SDS011;33105;47.964;7.982;2024-03-07T06:40:41;58.45;;;19.05;;
47365;SDS011;33105;47.964;7.982;2024-03-07T06:43:45;48.97;;;18.85;;
47365;SDS011;33105;47.964;7.982;2024-03-07T06:46:47;60.38;;;20.90;;
47365;SDS011;33105;47.964;7.982;2024-03-07T06:49:48;70.22;;;22.65;;
47365;SDS011;33105;47.964;7.982;2024-03-07T06:52:49;70.57;;;22.45;;
47365;SDS011;33105;47.964;7.982;2024-03-07T06:55:50;72.40;;;22.20;;
47365;SDS011;33105;47.964;7.982;2024-03-07T06:58:54;93.03;;;22.48;;
47365;SDS011;33105;47.964;7.982;2024-03-07T07:01:55;95.20;;;24.20;;
47365;SDS011;33105;47.964;7.982;2024-03-07T07:04:59;77.28;;;22.40;;
47365;SDS011;33105;47.964;7.982;2024-03-07T07:08:01;78.15;;;21.77;;
47365;SDS011;33105;47.964;7.982;2024-03-07T07:11:02;67.70;;;22.23;;
47365;SDS011;33105;47.964;7.982;2024-03-07T07:14:04;78.68;;;22.98;;
47365;SDS011;33105;47.964;7.982;2024-03-07T07:17:09;83.28;;;26.33;;
47365;SDS011;33105;47.964;7.982;2024-03-07T07:20:17;80.28;;;28.00;;
47365;SDS011;33105;47.964;7.982;2024-03-07T07:23:19;97.07;;;29.15;;
47365;SDS011;33105;47.964;7.982;2024-03-07T07:26:21;98.13;;;27.67;;
47365;SDS011;33105;47.964;7.982;2024-03-07T07:29:22;107.35;;;26.30;;
47365;SDS011;33105;47.964;7.982;2024-03-07T07:32:33;213.05;;;27.17;;
47365;SDS011;33105;47.964;7.982;2024-03-07T07:35:36;61.35;;;22.50;;
47365;SDS011;33105;47.964;7.982;2024-03-07T07:38:41;92.00;;;24.27;;
47365;SDS011;33105;47.964;7.982;2024-03-07T07:41:51;510.08;;;31.00;;
47365;SDS011;33105;47.964;7.982;2024-03-07T07:45:40;207.27;;;21.77;;
47365;SDS011;33105;47.964;7.982;2024-03-07T07:49:06;752.92;;;34.42;;
47365;SDS011;33105;47.964;7.982;2024-03-07T07:52:07;32.45;;;14.52;;
47365;SDS011;33105;47.964;7.982;2024-03-07T07:58:50;684.60;;;33.67;;
47365;SDS011;33105;47.964;7.982;2024-03-07T08:02:01;537.20;;;32.70;;
47365;SDS011;33105;47.964;7.982;2024-03-07T08:05:38;314.48;;;24.35;;
47365;SDS011;33105;47.964;7.982;2024-03-07T08:08:49;294.02;;;24.13;;
47365;SDS011;33105;47.964;7.982;2024-03-07T08:15:58;86.60;;;20.83;;
47365;SDS011;33105;47.964;7.982;2024-03-07T08:19:11;102.30;;;21.35;;
47365;SDS011;33105;47.964;7.982;2024-03-07T08:22:12;106.80;;;23.20;;
47365;SDS011;33105;47.964;7.982;2024-03-07T08:37:25;503.27;;;30.15;;
47365;SDS011;33105;47.964;7.982;2024-03-07T08:50:29;185.73;;;22.73;;
47365;SDS011;33105;47.964;7.982;2024-03-07T09:16:15;44.30;;;21.65;;
47365;SDS011;33105;47.964;7.982;2024-03-07T09:19:31;50.85;;;23.85;;
47365;SDS011;33105;47.964;7.982;2024-03-07T09:41:36;49.53;;;24.98;;
47365;SDS011;33105;47.964;7.982;2024-03-07T09:44:40;53.45;;;28.02;;
47365;SDS011;33105;47.964;7.982;2024-03-07T09:47:45;49.95;;;26.40;;
47365;SDS011;33105;47.964;7.982;2024-03-07T09:50:48;55.15;;;27.40;;
47365;SDS011;33105;47.964;7.982;2024-03-07T09:53:53;46.63;;;26.40;;
47365;SDS011;33105;47.964;7.982;2024-03-07T09:56:58;43.03;;;24.42;;
47365;SDS011;33105;47.964;7.982;2024-03-07T10:00:04;43.55;;;25.35;;
47365;SDS011;33105;47.964;7.982;2024-03-07T10:03:13;43.88;;;23.77;;
47365;SDS011;33105;47.964;7.982;2024-03-07T10:06:17;40.95;;;24.52;;
47365;SDS011;33105;47.964;7.982;2024-03-07T10:09:18;42.97;;;24.48;;
47365;SDS011;33105;47.964;7.982;2024-03-07T10:12:21;38.25;;;21.92;;
47365;SDS011;33105;47.964;7.982;2024-03-07T10:15:27;42.28;;;22.13;;
47365;SDS011;33105;47.964;7.982;2024-03-07T10:18:32;33.53;;;21.07;;
47365;SDS011;33105;47.964;7.982;2024-03-07T10:21:33;37.33;;;22.05;;
47365;SDS011;33105;47.964;7.982;2024-03-07T10:24:37;34.08;;;19.80;;
47365;SDS011;33105;47.964;7.982;2024-03-07T10:27:39;37.95;;;21.42;;
47365;SDS011;33105;47.964;7.982;2024-03-07T10:30:40;38.20;;;21.55;;
47365;SDS011;33105;47.964;7.982;2024-03-07T10:33:42;34.85;;;20.80;;
47365;SDS011;33105;47.964;7.982;2024-03-07T10:36:44;31.08;;;19.42;;
47365;SDS011;33105;47.964;7.982;2024-03-07T10:39:46;34.35;;;20.48;;
47365;SDS011;33105;47.964;7.982;2024-03-07T10:42:48;35.45;;;20.52;;
47365;SDS011;33105;47.964;7.982;2024-03-07T10:45:52;34.15;;;20.35;;
47365;SDS011;33105;47.964;7.982;2024-03-07T10:48:56;34.50;;;19.48;;
47365;SDS011;33105;47.964;7.982;2024-03-07T10:52:03;35.28;;;19.98;;
47365;SDS011;33105;47.964;7.982;2024-03-07T10:55:16;32.80;;;19.77;;
47365;SDS011;33105;47.964;7.982;2024-03-07T11:05:00;32.60;;;20.35;;
47365;SDS011;33105;47.964;7.982;2024-03-07T11:08:02;34.80;;;19.55;;
47365;SDS011;33105;47.964;7.982;2024-03-07T11:11:12;33.55;;;19.30;;
47365;SDS011;33105;47.964;7.982;2024-03-07T11:14:14;43.03;;;20.67;;
47365;SDS011;33105;47.964;7.982;2024-03-07T11:17:20;30.70;;;18.30;;
47365;SDS011;33105;47.964;7.982;2024-03-07T11:20:26;33.92;;;19.10;;
47365;SDS011;33105;47.964;7.982;2024-03-07T11:23:29;33.42;;;19.15;;
47365;SDS011;33105;47.964;7.982;2024-03-07T11:26:39;31.40;;;19.23;;
47365;SDS011;33105;47.964;7.982;2024-03-07T11:29:46;31.38;;;19.25;;
47365;SDS011;33105;47.964;7.982;2024-03-07T11:32:49;32.80;;;19.42;;
47365;SDS011;33105;47.964;7.982;2024-03-07T11:35:54;34.13;;;18.52;;
47365;SDS011;33105;47.964;7.982;2024-03-07T11:38:55;32.20;;;19.45;;
47365;SDS011;33105;47.964;7.982;2024-03-07T11:41:56;29.02;;;18.13;;
47365;SDS011;33105;47.964;7.982;2024-03-07T11:44:58;32.72;;;19.02;;
47365;SDS011;33105;47.964;7.982;2024-03-07T11:48:00;30.65;;;18.83;;
47365;SDS011;33105;47.964;7.982;2024-03-07T11:51:07;30.35;;;16.95;;
47365;SDS011;33105;47.964;7.982;2024-03-07T11:54:11;28.05;;;17.65;;
47365;SDS011;33105;47.964;7.982;2024-03-07T11:57:15;25.77;;;16.23;;
47365;SDS011;33105;47.964;7.982;2024-03-07T12:00:17;27.27;;;15.88;;
47365;SDS011;33105;47.964;7.982;2024-03-07T12:03:20;27.17;;;16.65;;
47365;SDS011;33105;47.964;7.982;2024-03-07T12:06:22;58.53;;;28.98;;
47365;SDS011;33105;47.964;7.982;2024-03-07T12:09:23;47.88;;;29.88;;
47365;SDS011;33105;47.964;7.982;2024-03-07T12:12:24;50.20;;;30.20;;
47365;SDS011;33105;47.964;7.982;2024-03-07T12:15:28;52.67;;;32.65;;
47365;SDS011;33105;47.964;7.982;2024-03-07T12:18:30;56.33;;;33.92;;
47365;SDS011;33105;47.964;7.982;2024-03-07T12:21:32;53.33;;;33.30;;
47365;SDS011;33105;47.964;7.982;2024-03-07T12:24:33;52.67;;;33.17;;
47365;SDS011;33105;47.964;7.982;2024-03-07T12:27:35;56.70;;;34.58;;
47365;SDS011;33105;47.964;7.982;2024-03-07T12:33:46;50.75;;;33.17;;
47365;SDS011;33105;47.964;7.982;2024-03-07T12:36:52;48.42;;;31.35;;
47365;SDS011;33105;47.964;7.982;2024-03-07T12:39:56;51.55;;;31.55;;
47365;SDS011;33105;47.964;7.982;2024-03-07T12:43:02;52.72;;;31.23;;
47365;SDS011;33105;47.964;7.982;2024-03-07T12:46:13;46.65;;;30.52;;
47365;SDS011;33105;47.964;7.982;2024-03-07T12:49:18;47.08;;;30.98;;
47365;SDS011;33105;47.964;7.982;2024-03-07T12:52:20;45.53;;;28.50;;
47365;SDS011;33105;47.964;7.982;2024-03-07T12:55:21;50.40;;;30.95;;
47365;SDS011;33105;47.964;7.982;2024-03-07T12:58:22;47.13;;;29.48;;
47365;SDS011;33105;47.964;7.982;2024-03-07T13:01:26;48.25;;;30.73;;
47365;SDS011;33105;47.964;7.982;2024-03-07T13:04:27;60.47;;;31.95;;
47365;SDS011;33105;47.964;7.982;2024-03-07T13:07:28;141.20;;;36.83;;
47365;SDS011;33105;47.964;7.982;2024-03-07T13:10:30;44.00;;;27.70;;
47365;SDS011;33105;47.964;7.982;2024-03-07T13:13:31;40.60;;;25.20;;
47365;SDS011;33105;47.964;7.982;2024-03-07T13:16:33;42.38;;;27.05;;
47365;SDS011;33105;47.964;7.982;2024-03-07T13:19:34;40.25;;;26.48;;
47365;SDS011;33105;47.964;7.982;2024-03-07T13:22:42;41.95;;;25.60;;
47365;SDS011;33105;47.964;7.982;2024-03-07T13:25:44;42.50;;;25.17;;
47365;SDS011;33105;47.964;7.982;2024-03-07T13:28:46;41.38;;;26.25;;
47365;SDS011;33105;47.964;7.982;2024-03-07T13:31:48;40.88;;;25.27;;
47365;SDS011;33105;47.964;7.982;2024-03-07T13:34:49;39.92;;;23.70;;
47365;SDS011;33105;47.964;7.982;2024-03-07T13:37:51;32.33;;;19.35;;
47365;SDS011;33105;47.964;7.982;2024-03-07T13:40:56;22.23;;;14.10;;
47365;SDS011;33105;47.964;7.982;2024-03-07T13:43:58;25.50;;;14.38;;
47365;SDS011;33105;47.964;7.982;2024-03-07T13:47:00;21.73;;;13.80;;
47365;SDS011;33105;47.964;7.982;2024-03-07T13:50:02;21.02;;;12.70;;
47365;SDS011;33105;47.964;7.982;2024-03-07T13:53:04;43.58;;;15.40;;
47365;SDS011;33105;47.964;7.982;2024-03-07T14:03:10;27.23;;;15.75;;
47365;SDS011;33105;47.964;7.982;2024-03-07T14:07:09;27.70;;;16.35;;
47365;SDS011;33105;47.964;7.982;2024-03-07T14:13:39;26.02;;;15.20;;
47365;SDS011;33105;47.964;7.982;2024-03-07T14:16:48;26.70;;;15.35;;
47365;SDS011;33105;47.964;7.982;2024-03-07T14:30:17;23.80;;;15.95;;
47365;SDS011;33105;47.964;7.982;2024-03-07T14:33:32;28.05;;;15.30;;
47365;SDS011;33105;47.964;7.982;2024-03-07T14:36:52;28.23;;;15.55;;
47365;SDS011;33105;47.964;7.982;2024-03-07T14:40:08;24.35;;;15.35;;
47365;SDS011;33105;47.964;7.982;2024-03-07T14:43:14;26.10;;;16.10;;
47365;SDS011;33105;47.964;7.982;2024-03-07T14:46:17;27.17;;;15.65;;
47365;SDS011;33105;47.964;7.982;2024-03-07T14:49:19;26.63;;;15.60;;
47365;SDS011;33105;47.964;7.982;2024-03-07T14:52:21;24.50;;;14.40;;
47365;SDS011;33105;47.964;7.982;2024-03-07T14:55:22;28.13;;;15.80;;
47365;SDS011;33105;47.964;7.982;2024-03-07T14:58:24;25.40;;;16.17;;
47365;SDS011;33105;47.964;7.982;2024-03-07T15:01:26;29.70;;;15.93;;
47365;SDS011;33105;47.964;7.982;2024-03-07T15:04:28;30.42;;;16.67;;
47365;SDS011;33105;47.964;7.982;2024-03-07T15:07:32;26.80;;;15.55;;
47365;SDS011;33105;47.964;7.982;2024-03-07T15:10:34;28.73;;;16.38;;
47365;SDS011;33105;47.964;7.982;2024-03-07T15:13:36;29.38;;;16.83;;
47365;SDS011;33105;47.964;7.982;2024-03-07T15:16:38;28.13;;;16.63;;
47365;SDS011;33105;47.964;7.982;2024-03-07T15:19:40;28.10;;;15.20;;
47365;SDS011;33105;47.964;7.982;2024-03-07T15:22:41;30.15;;;16.33;;
47365;SDS011;33105;47.964;7.982;2024-03-07T15:25:47;28.17;;;15.55;;
47365;SDS011;33105;47.964;7.982;2024-03-07T15:28:49;23.60;;;14.65;;
47365;SDS011;33105;47.964;7.982;2024-03-07T15:31:51;25.95;;;14.43;;
47365;SDS011;33105;47.964;7.982;2024-03-07T15:34:52;25.85;;;15.90;;
47365;SDS011;33105;47.964;7.982;2024-03-07T15:37:54;24.88;;;14.45;;
47365;SDS011;33105;47.964;7.982;2024-03-07T15:40:59;26.58;;;16.25;;
47365;SDS011;33105;47.964;7.982;2024-03-07T15:44:02;26.25;;;15.95;;
47365;SDS011;33105;47.964;7.982;2024-03-07T15:47:03;25.60;;;15.63;;
47365;SDS011;33105;47.964;7.982;2024-03-07T15:50:07;26.95;;;15.07;;
47365;SDS011;33105;47.964;7.982;2024-03-07T15:53:08;28.23;;;16.58;;
47365;SDS011;33105;47.964;7.982;2024-03-07T15:56:10;31.02;;;17.52;;
47365;SDS011;33105;47.964;7.982;2024-03-07T15:59:11;28.85;;;16.63;;
47365;SDS011;33105;47.964;7.982;2024-03-07T16:02:12;27.08;;;15.80;;
47365;SDS011;33105;47.964;7.982;2024-03-07T16:05:15;35.35;;;18.23;;
47365;SDS011;33105;47.964;7.982;2024-03-07T16:08:17;30.60;;;17.25;;
47365;SDS011;33105;47.964;7.982;2024-03-07T16:11:19;32.92;;;18.88;;
47365;SDS011;33105;47.964;7.982;2024-03-07T16:14:24;34.53;;;19.10;;
47365;SDS011;33105;47.964;7.982;2024-03-07T16:17:26;30.65;;;17.80;;
47365;SDS011;33105;47.964;7.982;2024-03-07T16:20:30;31.13;;;17.45;;
47365;SDS011;33105;47.964;7.982;2024-03-07T16:23:32;34.13;;;18.23;;
47365;SDS011;33105;47.964;7.982;2024-03-07T16:26:34;29.77;;;16.92;;
47365;SDS011;33105;47.964;7.982;2024-03-07T16:29:36;32.45;;;18.50;;
47365;SDS011;33105;47.964;7.982;2024-03-07T16:32:37;32.55;;;18.50;;
47365;SDS011;33105;47.964;7.982;2024-03-07T16:35:38;36.90;;;18.95;;
47365;SDS011;33105;47.964;7.982;2024-03-07T16:38:40;33.60;;;18.35;;
47365;SDS011;33105;47.964;7.982;2024-03-07T16:41:41;34.33;;;18.25;;
47365;SDS011;33105;47.964;7.982;2024-03-07T16:44:42;31.67;;;17.75;;
47365;SDS011;33105;47.964;7.982;2024-03-07T16:47:44;32.45;;;16.50;;
47365;SDS011;33105;47.964;7.982;2024-03-07T16:50:46;26.27;;;16.48;;
47365;SDS011;33105;47.964;7.982;2024-03-07T16:53:47;28.15;;;15.88;;
47365;SDS011;33105;47.964;7.982;2024-03-07T16:56:48;35.08;;;17.90;;
47365;SDS011;33105;47.964;7.982;2024-03-07T16:59:50;27.25;;;16.17;;
47365;SDS011;33105;47.964;7.982;2024-03-07T17:02:51;28.77;;;16.55;;
47365;SDS011;33105;47.964;7.982;2024-03-07T17:05:52;33.15;;;18.25;;
47365;SDS011;33105;47.964;7.982;2024-03-07T17:08:53;31.05;;;17.40;;
47365;SDS011;33105;47.964;7.982;2024-03-07T17:11:55;28.52;;;16.40;;
47365;SDS011;33105;47.964;7.982;2024-03-07T17:14:56;32.55;;;16.52;;
47365;SDS011;33105;47.964;7.982;2024-03-07T17:17:57;29.60;;;17.35;;
47365;SDS011;33105;47.964;7.982;2024-03-07T17:21:00;29.50;;;17.73;;
47365;SDS011;33105;47.964;7.982;2024-03-07T17:24:01;33.83;;;19.35;;
47365;SDS011;33105;47.964;7.982;2024-03-07T17:27:02;33.35;;;18.42;;
47365;SDS011;33105;47.964;7.982;2024-03-07T17:30:06;37.03;;;18.30;;
47365;SDS011;33105;47.964;7.982;2024-03-07T17:33:08;32.50;;;19.23;;
47365;SDS011;33105;47.964;7.982;2024-03-07T17:36:10;31.08;;;18.20;;
47365;SDS011;33105;47.964;7.982;2024-03-07T17:39:12;34.25;;;18.77;;
47365;SDS011;33105;47.964;7.982;2024-03-07T17:42:16;33.88;;;18.88;;
47365;SDS011;33105;47.964;7.982;2024-03-07T17:45:24;36.65;;;20.33;;
47365;SDS011;33105;47.964;7.982;2024-03-07T17:48:28;32.78;;;18.52;;
47365;SDS011;33105;47.964;7.982;2024-03-07T17:51:29;39.35;;;19.38;;
47365;SDS011;33105;47.964;7.982;2024-03-07T17:54:31;30.42;;;17.77;;
47365;SDS011;33105;47.964;7.982;2024-03-07T17:58:57;33.35;;;18.40;;
47365;SDS011;33105;47.964;7.982;2024-03-07T18:01:59;36.47;;;17.73;;
47365;SDS011;33105;47.964;7.982;2024-03-07T18:05:01;32.67;;;18.00;;
47365;SDS011;33105;47.964;7.982;2024-03-07T18:11:17;32.13;;;17.55;;
47365;SDS011;33105;47.964;7.982;2024-03-07T18:14:19;31.33;;;18.55;;
47365;SDS011;33105;47.964;7.982;2024-03-07T18:17:22;36.88;;;18.17;;
47365;SDS011;33105;47.964;7.982;2024-03-07T18:20:29;29.48;;;16.58;;
47365;SDS011;33105;47.964;7.982;2024-03-07T18:23:37;37.50;;;19.35;;
47365;SDS011;33105;47.964;7.982;2024-03-07T18:26:38;49.97;;;24.70;;
47365;SDS011;33105;47.964;7.982;2024-03-07T18:29:40;39.28;;;21.75;;
47365;SDS011;33105;47.964;7.982;2024-03-07T18:32:54;47.58;;;26.30;;
47365;SDS011;33105;47.964;7.982;2024-03-07T18:37:31;38.13;;;20.02;;
47365;SDS011;33105;47.964;7.982;2024-03-07T18:49:07;41.97;;;22.40;;
47365;SDS011;33105;47.964;7.982;2024-03-07T18:56:31;46.13;;;26.27;;
47365;SDS011;33105;47.964;7.982;2024-03-07T18:59:55;49.25;;;25.35;;
47365;SDS011;33105;47.964;7.982;2024-03-07T19:03:00;50.67;;;24.85;;
47365;SDS011;33105;47.964;7.982;2024-03-07T19:06:04;51.90;;;27.15;;
47365;SDS011;33105;47.964;7.982;2024-03-07T19:12:47;58.60;;;29.27;;
47365;SDS011;33105;47.964;7.982;2024-03-07T19:15:51;50.42;;;26.67;;
47365;SDS011;33105;47.964;7.982;2024-03-07T19:18:53;51.50;;;26.45;;
47365;SDS011;33105;47.964;7.982;2024-03-07T19:21:54;53.90;;;26.30;;
47365;SDS011;33105;47.964;7.982;2024-03-07T19:28:44;52.33;;;27.48;;
47365;SDS011;33105;47.964;7.982;2024-03-07T19:32:06;53.97;;;27.73;;
47365;SDS011;33105;47.964;7.982;2024-03-07T19:35:11;51.58;;;26.88;;
47365;SDS011;33105;47.964;7.982;2024-03-07T19:42:26;58.97;;;27.73;;
47365;SDS011;33105;47.964;7.982;2024-03-07T19:45:28;55.42;;;27.80;;
47365;SDS011;33105;47.964;7.982;2024-03-07T19:48:29;51.35;;;26.70;;
47365;SDS011;33105;47.964;7.982;2024-03-07T19:51:39;46.72;;;25.00;;
47365;SDS011;33105;47.964;7.982;2024-03-07T19:54:44;49.67;;;26.80;;
47365;SDS011;33105;47.964;7.982;2024-03-07T19:58:49;55.80;;;28.90;;
47365;SDS011;33105;47.964;7.982;2024-03-07T20:01:50;49.30;;;28.10;;
47365;SDS011;33105;47.964;7.982;2024-03-07T20:05:27;57.83;;;30.23;;
47365;SDS011;33105;47.964;7.982;2024-03-07T20:09:16;53.25;;;28.35;;
47365;SDS011;33105;47.964;7.982;2024-03-07T20:13:29;57.75;;;27.98;;
47365;SDS011;33105;47.964;7.982;2024-03-07T20:17:32;52.35;;;28.17;;
47365;SDS011;33105;47.964;7.982;2024-03-07T20:20:16;50.58;;;26.98;;
47365;SDS011;33105;47.964;7.982;2024-03-07T20:23:26;52.55;;;27.30;;
47365;SDS011;33105;47.964;7.982;2024-03-07T20:27:20;54.88;;;29.10;;
47365;SDS011;33105;47.964;7.982;2024-03-07T20:30:22;58.78;;;31.48;;
47365;SDS011;33105;47.964;7.982;2024-03-07T20:33:24;60.20;;;30.20;;
47365;SDS011;33105;47.964;7.982;2024-03-07T20:36:26;53.50;;;28.55;;
47365;SDS011;33105;47.964;7.982;2024-03-07T20:39:27;53.60;;;27.98;;
47365;SDS011;33105;47.964;7.982;2024-03-07T20:42:29;52.80;;;28.00;;
47365;SDS011;33105;47.964;7.982;2024-03-07T20:45:30;52.08;;;26.13;;
47365;SDS011;33105;47.964;7.982;2024-03-07T20:48:34;56.17;;;29.75;;
47365;SDS011;33105;47.964;7.982;2024-03-07T20:55:57;53.15;;;29.63;;
47365;SDS011;33105;47.964;7.982;2024-03-07T20:59:03;55.95;;;29.92;;
47365;SDS011;33105;47.964;7.982;2024-03-07T21:02:07;52.03;;;28.08;;
47365;SDS011;33105;47.964;7.982;2024-03-07T21:05:09;45.97;;;26.42;;
47365;SDS011;33105;47.964;7.982;2024-03-07T21:08:11;48.25;;;26.13;;
47365;SDS011;33105;47.964;7.982;2024-03-07T21:11:22;53.08;;;28.27;;
47365;SDS011;33105;47.964;7.982;2024-03-07T21:15:37;49.75;;;27.05;;
47365;SDS011;33105;47.964;7.982;2024-03-07T21:18:39;52.97;;;29.17;;
47365;SDS011;33105;47.964;7.982;2024-03-07T21:22:35;51.78;;;27.27;;
47365;SDS011;33105;47.964;7.982;2024-03-07T21:27:13;52.10;;;29.35;;
47365;SDS011;33105;47.964;7.982;2024-03-07T21:30:20;57.58;;;31.45;;
47365;SDS011;33105;47.964;7.982;2024-03-07T21:33:22;55.05;;;32.03;;
47365;SDS011;33105;47.964;7.982;2024-03-07T21:36:24;58.50;;;32.72;;
47365;SDS011;33105;47.964;7.982;2024-03-07T21:40:59;50.42;;;28.50;;
47365;SDS011;33105;47.964;7.982;2024-03-07T21:44:00;62.63;;;30.42;;
47365;SDS011;33105;47.964;7.982;2024-03-07T21:47:01;53.20;;;28.10;;
47365;SDS011;33105;47.964;7.982;2024-03-07T21:50:03;49.42;;;29.25;;
47365;SDS011;33105;47.964;7.982;2024-03-07T21:53:07;50.88;;;29.88;;
47365;SDS011;33105;47.964;7.982;2024-03-07T21:56:11;44.50;;;26.67;;
47365;SDS011;33105;47.964;7.982;2024-03-07T22:04:16;48.03;;;27.92;;
47365;SDS011;33105;47.964;7.982;2024-03-07T22:30:06;50.17;;;27.13;;
47365;SDS011;33105;47.964;7.982;2024-03-07T22:33:14;47.97;;;27.17;;
47365;SDS011;33105;47.964;7.982;2024-03-07T22:48:58;52.50;;;28.23;;
47365;SDS011;33105;47.964;7.982;2024-03-07T22:56:41;51.40;;;28.35;;
47365;SDS011;33105;47.964;7.982;2024-03-07T23:00:08;52.97;;;29.55;;
47365;SDS011;33105;47.964;7.982;2024-03-07T23:03:24;46.42;;;25.42;;
47365;SDS011;33105;47.964;7.982;2024-03-07T23:06:26;47.85;;;26.38;;
47365;SDS011;33105;47.964;7.982;2024-03-07T23:09:34;49.70;;;26.97;;
47365;SDS011;33105;47.964;7.982;2024-03-07T23:12:37;46.45;;;26.63;;
47365;SDS011;33105;47.964;7.982;2024-03-07T23:15:40;51.20;;;28.33;;
47365;SDS011;33105;47.964;7.982;2024-03-07T23:19:18;49.08;;;26.83;;
47365;SDS011;33105;47.964;7.982;2024-03-07T23:22:32;48.35;;;26.95;;
47365;SDS011;33105;47.964;7.982;2024-03-07T23:25:33;49.55;;;26.17;;
47365;SDS011;33105;47.964;7.982;2024-03-07T23:28:35;48.50;;;26.48;;
47365;SDS011;33105;47.964;7.982;2024-03-07T23:31:36;47.08;;;26.63;;
47365;SDS011;33105;47.964;7.982;2024-03-07T23:34:38;45.20;;;25.30;;
47365;SDS011;33105;47.964;7.982;2024-03-07T23:37:39;54.92;;;24.48;;
47365;SDS011;33105;47.964;7.982;2024-03-07T23:40:41;43.15;;;24.17;;
47365;SDS011;33105;47.964;7.982;2024-03-07T23:53:29;45.20;;;25.10;;
47365;SDS011;33105;47.964;7.982;2024-03-07T23:56:30;45.28;;;24.75;;
